Time;durP1;ratioP1;P1;durP2;ratioP2;P2;SDS_P1;SDS_P2;PMS_P1;PMS_P2;Temp;Humidity;BMP_temperature;BMP_pressure;BME280_temperature;BME280_humidity;BME280_pressure;Samples;Min_cycle;Max_cycle;Signal;HPM_P1;HPM_P2
2023/11/09 00:00:31;;;;;;;6.25;1.30;;;7.80;100.00;;;;;;4939767;28;20187;-81
2023/11/09 00:02:57;;;;;;;7.43;1.42;;;7.80;100.00;;;;;;4937041;28;20051;-81
2023/11/09 00:05:25;;;;;;;7.30;2.03;;;7.70;100.00;;;;;;4934977;29;20052;-81
2023/11/09 00:11:13;;;;;;;4.13;1.17;;;7.70;100.00;;;;;;4882813;29;20120;-73
2023/11/09 00:13:40;;;;;;;3.38;1.63;;;7.60;100.00;;;;;;4883223;29;20110;-73
2023/11/09 00:16:06;;;;;;;5.00;1.92;;;7.60;100.00;;;;;;4878921;29;20120;-74
2023/11/09 00:18:33;;;;;;;4.90;1.85;;;7.60;100.00;;;;;;4883997;29;20131;-73
2023/11/09 00:21:02;;;;;;;4.85;1.80;;;7.50;100.00;;;;;;4883428;29;20056;-73
2023/11/09 00:23:31;;;;;;;4.85;1.60;;;7.50;100.00;;;;;;4878704;29;20056;-73
2023/11/09 00:26:01;;;;;;;4.18;1.95;;;7.40;100.00;;;;;;4900076;23;20049;-81
2023/11/09 00:28:28;;;;;;;3.67;1.50;;;7.40;100.00;;;;;;4921811;29;20134;-82
2023/11/09 00:30:55;;;;;;;5.03;1.60;;;7.40;100.00;;;;;;4924052;29;20051;-82
2023/11/09 00:33:22;;;;;;;7.40;1.85;;;7.30;100.00;;;;;;4936494;29;20052;-81
2023/11/09 00:35:49;;;;;;;8.27;2.25;;;7.30;100.00;;;;;;4917930;29;20040;-82
2023/11/09 00:38:16;;;;;;;5.78;1.40;;;7.30;100.00;;;;;;4936331;29;20142;-82
2023/11/09 00:40:43;;;;;;;3.47;1.98;;;7.30;100.00;;;;;;4948227;29;20173;-82
2023/11/09 00:45:42;;;;;;;7.22;1.70;;;7.30;100.00;;;;;;4910552;29;20081;-81
2023/11/09 00:48:09;;;;;;;11.73;2.10;;;7.30;100.00;;;;;;4898634;29;20075;-81
2023/11/09 00:56:53;;;;;;;9.55;2.22;;;7.30;100.00;;;;;;4993249;23;20658;-73
2023/11/09 00:59:20;;;;;;;5.60;1.90;;;7.20;100.00;;;;;;4930226;28;20078;-73
2023/11/09 01:01:47;;;;;;;8.02;2.30;;;7.20;100.00;;;;;;4945809;28;20608;-73
2023/11/09 01:04:14;;;;;;;9.02;2.10;;;7.20;100.00;;;;;;4926816;29;20061;-73
2023/11/09 01:06:41;;;;;;;4.03;2.08;;;7.20;100.00;;;;;;4927435;29;20058;-73
2023/11/09 01:09:08;;;;;;;7.88;2.05;;;7.20;100.00;;;;;;4926933;29;20051;-73
2023/11/09 01:11:37;;;;;;;2.83;1.90;;;7.20;100.00;;;;;;4929861;28;20058;-73
2023/11/09 01:14:04;;;;;;;9.25;2.30;;;7.20;100.00;;;;;;4943035;28;20051;-73
2023/11/09 01:19:21;;;;;;;10.15;2.42;;;7.20;100.00;;;;;;4909369;29;20056;-82
2023/11/09 01:21:48;;;;;;;4.05;1.88;;;7.20;100.00;;;;;;4896194;29;20044;-81
2023/11/09 01:24:17;;;;;;;5.47;2.15;;;7.20;100.00;;;;;;4912941;29;20052;-81
2023/11/09 01:29:30;;;;;;;11.82;2.40;;;7.20;100.00;;;;;;4945857;28;20051;-81
2023/11/09 01:31:58;;;;;;;5.25;2.75;;;7.20;100.00;;;;;;4947392;28;20039;-81
2023/11/09 01:34:25;;;;;;;4.38;2.45;;;7.20;100.00;;;;;;4937182;28;20071;-81
2023/11/09 01:36:55;;;;;;;9.48;2.63;;;7.20;100.00;;;;;;4951085;28;20043;-82
2023/11/09 01:39:23;;;;;;;6.88;2.40;;;7.20;100.00;;;;;;4948294;28;20445;-81
2023/11/09 01:41:50;;;;;;;6.47;3.05;;;7.20;100.00;;;;;;4930647;29;20138;-82
2023/11/09 01:44:17;;;;;;;10.40;2.78;;;7.20;100.00;;;;;;4953055;28;20054;-81
2023/11/09 01:46:44;;;;;;;5.60;2.60;;;7.20;100.00;;;;;;4935943;29;20109;-81
2023/11/09 01:49:12;;;;;;;5.80;2.50;;;7.20;100.00;;;;;;4951285;29;20137;-81
2023/11/09 01:51:42;;;;;;;17.02;2.90;;;7.20;100.00;;;;;;4951200;28;20051;-82
2023/11/09 01:54:11;;;;;;;5.70;2.65;;;7.20;100.00;;;;;;4935773;29;20173;-81
2023/11/09 01:56:39;;;;;;;11.68;2.92;;;7.20;100.00;;;;;;4934421;29;20047;-81
2023/11/09 01:59:07;;;;;;;6.28;2.55;;;7.10;100.00;;;;;;4933202;29;20583;-81
2023/11/09 02:01:36;;;;;;;7.28;2.85;;;7.10;100.00;;;;;;4951440;28;20398;-81
2023/11/09 02:04:03;;;;;;;9.98;2.80;;;7.20;100.00;;;;;;4951294;28;20067;-81
2023/11/09 02:06:31;;;;;;;8.52;3.17;;;7.20;100.00;;;;;;4934887;28;20141;-81
2023/11/09 02:08:58;;;;;;;8.88;2.95;;;7.20;100.00;;;;;;4950490;29;20109;-81
2023/11/09 02:11:25;;;;;;;6.03;2.85;;;7.20;100.00;;;;;;4933361;29;20055;-82
2023/11/09 02:13:52;;;;;;;8.77;2.78;;;7.20;100.00;;;;;;4945955;28;20047;-82
2023/11/09 02:16:20;;;;;;;7.13;2.95;;;7.20;100.00;;;;;;4948954;29;20051;-81
2023/11/09 02:18:47;;;;;;;6.95;3.17;;;7.20;100.00;;;;;;4951580;29;20130;-82
2023/11/09 02:21:16;;;;;;;9.13;2.92;;;7.30;100.00;;;;;;4947490;28;20453;-82
2023/11/09 02:23:48;;;;;;;10.13;3.15;;;7.20;100.00;;;;;;4951794;28;20048;-82
2023/11/09 02:26:16;;;;;;;5.65;2.72;;;7.30;100.00;;;;;;4948716;29;20137;-82
2023/11/09 02:28:48;;;;;;;5.97;3.05;;;7.20;100.00;;;;;;4933460;29;20054;-81
2023/11/09 02:31:18;;;;;;;5.20;2.90;;;7.20;100.00;;;;;;4929097;28;20560;-81
2023/11/09 02:33:45;;;;;;;8.60;2.80;;;7.20;100.00;;;;;;4935184;29;20106;-81
2023/11/09 02:36:13;;;;;;;5.10;2.83;;;7.20;100.00;;;;;;4948572;29;20058;-82
2023/11/09 02:38:40;;;;;;;6.28;2.50;;;7.30;100.00;;;;;;4933951;29;20058;-81
2023/11/09 02:41:08;;;;;;;8.15;2.58;;;7.30;100.00;;;;;;4935257;29;20055;-81
2023/11/09 02:43:40;;;;;;;12.20;3.10;;;7.30;100.00;;;;;;4933821;29;20059;-82
2023/11/09 02:46:10;;;;;;;5.15;2.53;;;7.30;100.00;;;;;;4951843;28;20079;-81
2023/11/09 02:48:38;;;;;;;12.20;3.13;;;7.40;100.00;;;;;;4949779;29;20059;-81
2023/11/09 02:51:08;;;;;;;11.07;2.95;;;7.40;100.00;;;;;;4949579;28;20071;-82
2023/11/09 02:56:05;;;;;;;8.55;2.42;;;7.50;100.00;;;;;;4928240;29;20122;-82
2023/11/09 02:58:34;;;;;;;6.45;2.72;;;7.50;100.00;;;;;;4926814;29;20043;-82
2023/11/09 03:01:01;;;;;;;5.78;2.88;;;7.50;100.00;;;;;;4920841;29;20389;-81
2023/11/09 03:03:28;;;;;;;11.63;3.13;;;7.60;100.00;;;;;;4927495;29;20047;-81
2023/11/09 03:05:57;;;;;;;7.72;2.60;;;7.60;100.00;;;;;;4930169;29;20048;-81
2023/11/09 03:08:26;;;;;;;15.23;3.10;;;7.60;100.00;;;;;;4931548;29;20048;-81
2023/11/09 03:10:53;;;;;;;4.47;2.75;;;7.60;100.00;;;;;;4931126;29;20066;-81
2023/11/09 03:13:21;;;;;;;5.25;2.58;;;7.60;100.00;;;;;;4933735;29;20051;-81
2023/11/09 03:15:49;;;;;;;6.00;2.50;;;7.70;100.00;;;;;;4930998;29;20043;-82
2023/11/09 03:18:35;;;;;;;6.53;2.75;;;7.70;100.00;;;;;;4933455;29;20091;-81
2023/11/09 03:21:02;;;;;;;5.03;2.60;;;7.70;100.00;;;;;;4929671;29;20064;-81
2023/11/09 03:23:29;;;;;;;8.40;2.80;;;7.70;100.00;;;;;;4931502;29;20051;-82
2023/11/09 03:25:55;;;;;;;7.55;2.65;;;7.70;100.00;;;;;;4929661;29;20103;-82
2023/11/09 03:28:22;;;;;;;7.70;3.20;;;7.70;100.00;;;;;;4930723;29;20079;-82
2023/11/09 03:30:49;;;;;;;5.63;2.25;;;7.70;100.00;;;;;;4932016;29;20052;-83
2023/11/09 03:33:16;;;;;;;6.63;3.80;;;7.70;100.00;;;;;;4923546;29;20075;-83
2023/11/09 03:35:43;;;;;;;11.27;2.92;;;7.70;100.00;;;;;;4932085;29;20048;-82
2023/11/09 03:38:10;;;;;;;5.25;2.50;;;7.70;100.00;;;;;;4932607;29;20079;-84
2023/11/09 03:40:37;;;;;;;12.55;2.95;;;7.70;100.00;;;;;;4930967;29;20051;-83
2023/11/09 03:43:04;;;;;;;6.93;2.90;;;7.70;100.00;;;;;;4930578;29;20054;-82
2023/11/09 03:45:31;;;;;;;10.25;3.00;;;7.70;100.00;;;;;;4929226;29;20131;-82
2023/11/09 03:47:58;;;;;;;10.20;3.15;;;7.80;100.00;;;;;;4931935;29;20052;-82
2023/11/09 03:50:26;;;;;;;13.65;3.20;;;7.80;100.00;;;;;;4931911;29;20054;-83
2023/11/09 03:52:53;;;;;;;13.05;2.70;;;7.80;100.00;;;;;;4932084;29;20047;-83
2023/11/09 03:55:19;;;;;;;8.77;2.65;;;7.80;100.00;;;;;;4931719;29;20048;-83
2023/11/09 03:57:46;;;;;;;6.63;2.75;;;7.80;100.00;;;;;;4929253;29;20066;-82
2023/11/09 04:00:13;;;;;;;4.97;2.50;;;7.80;100.00;;;;;;4935356;29;20083;-82
2023/11/09 04:02:42;;;;;;;7.68;2.90;;;7.80;100.00;;;;;;4934215;29;20564;-82
2023/11/09 04:05:10;;;;;;;5.72;2.88;;;7.80;100.00;;;;;;4930614;29;20052;-82
2023/11/09 04:07:44;;;;;;;6.43;2.88;;;7.90;100.00;;;;;;4935503;29;20059;-83
2023/11/09 04:10:16;;;;;;;6.85;2.47;;;7.90;100.00;;;;;;4935218;29;20079;-82
2023/11/09 04:12:44;;;;;;;11.40;2.70;;;7.90;100.00;;;;;;4933832;29;20115;-82
2023/11/09 04:18:00;;;;;;;7.07;2.45;;;7.90;100.00;;;;;;4910493;29;20641;-82
2023/11/09 04:20:27;;;;;;;5.35;2.83;;;7.90;100.00;;;;;;4916240;29;20112;-82
2023/11/09 04:22:54;;;;;;;8.98;3.08;;;7.90;100.00;;;;;;4916933;29;20048;-82
2023/11/09 04:25:24;;;;;;;7.25;2.50;;;7.90;100.00;;;;;;4916686;29;20082;-82
2023/11/09 04:27:51;;;;;;;11.98;2.78;;;7.90;100.00;;;;;;4913720;29;20080;-82
2023/11/09 04:30:20;;;;;;;6.13;2.83;;;7.90;100.00;;;;;;4900996;29;20387;-82
2023/11/09 04:32:51;;;;;;;10.45;2.63;;;7.90;100.00;;;;;;4902923;29;20534;-82
2023/11/09 04:35:20;;;;;;;11.20;2.50;;;7.80;100.00;;;;;;4899447;29;20698;-81
2023/11/09 04:37:49;;;;;;;6.25;2.40;;;7.80;100.00;;;;;;4899105;29;20048;-82
2023/11/09 04:40:16;;;;;;;6.00;2.70;;;7.80;100.00;;;;;;4913838;29;20098;-81
2023/11/09 04:42:46;;;;;;;4.82;1.83;;;7.80;100.00;;;;;;4911848;29;20063;-81
2023/11/09 04:48:47;;;;;;;9.15;2.40;;;7.80;100.00;;;;;;4945485;28;20040;-73
2023/11/09 04:53:45;;;;;;;7.63;2.33;;;7.80;100.00;;;;;;4926113;28;20531;-73
2023/11/09 04:56:20;;;;;;;7.13;2.22;;;7.80;100.00;;;;;;4910520;29;20087;-73
2023/11/09 04:58:51;;;;;;;12.13;3.08;;;7.70;100.00;;;;;;4910638;29;20549;-73
2023/11/09 05:06:51;;;;;;;4.68;2.28;;;7.70;100.00;;;;;;4907483;29;20048;-80
2023/11/09 05:09:19;;;;;;;4.30;2.03;;;7.70;100.00;;;;;;4910194;29;20055;-80
2023/11/09 05:11:47;;;;;;;4.88;1.95;;;7.70;100.00;;;;;;4912699;29;20052;-80
2023/11/09 05:14:14;;;;;;;4.75;2.17;;;7.60;100.00;;;;;;4895032;29;20044;-80
2023/11/09 05:16:41;;;;;;;4.93;2.13;;;7.60;100.00;;;;;;4893633;29;20048;-80
2023/11/09 05:19:09;;;;;;;5.05;2.53;;;7.60;100.00;;;;;;4894834;29;20060;-80
2023/11/09 05:21:37;;;;;;;4.63;2.88;;;7.60;100.00;;;;;;4895224;29;20056;-80
2023/11/09 05:24:04;;;;;;;3.92;1.98;;;7.60;100.00;;;;;;4912593;29;20398;-80
2023/11/09 05:26:34;;;;;;;6.03;2.33;;;7.60;100.00;;;;;;4934244;23;20181;-73
2023/11/09 05:29:04;;;;;;;14.57;3.00;;;7.60;100.00;;;;;;4956205;28;20050;-73
2023/11/09 05:31:36;;;;;;;6.18;2.60;;;7.60;100.00;;;;;;4954400;28;20102;-73
2023/11/09 05:34:04;;;;;;;4.15;2.40;;;7.60;100.00;;;;;;4940821;28;20393;-73
2023/11/09 05:36:34;;;;;;;6.85;2.65;;;7.60;100.00;;;;;;4956555;28;20051;-73
2023/11/09 05:39:04;;;;;;;3.83;2.28;;;7.60;100.00;;;;;;4949240;28;20070;-73
2023/11/09 05:41:32;;;;;;;7.15;2.60;;;7.60;100.00;;;;;;4937176;28;20101;-73
2023/11/09 05:43:59;;;;;;;3.97;2.25;;;7.60;100.00;;;;;;4962090;28;20047;-73
2023/11/09 05:46:26;;;;;;;7.55;2.40;;;7.60;100.00;;;;;;4938467;28;20087;-73
2023/11/09 05:48:53;;;;;;;5.75;2.47;;;7.60;100.00;;;;;;4966295;28;20828;-73
2023/11/09 05:51:23;;;;;;;4.18;2.33;;;7.60;100.00;;;;;;4958494;28;20886;-73
2023/11/09 05:53:56;;;;;;;3.95;2.20;;;7.60;100.00;;;;;;4953558;28;20111;-74
2023/11/09 05:56:24;;;;;;;10.88;2.30;;;7.60;100.00;;;;;;4935996;28;20054;-71
2023/11/09 05:58:53;;;;;;;4.45;2.10;;;7.60;100.00;;;;;;4935898;28;20051;-72
2023/11/09 06:01:20;;;;;;;5.75;2.17;;;7.60;100.00;;;;;;4960989;28;20667;-72
2023/11/09 06:03:47;;;;;;;13.75;2.90;;;7.60;100.00;;;;;;4961672;28;20086;-73
2023/11/09 06:06:14;;;;;;;8.98;2.78;;;7.60;100.00;;;;;;4952057;28;20130;-74
2023/11/09 06:08:41;;;;;;;8.80;2.65;;;7.60;100.00;;;;;;4934898;28;20057;-73
2023/11/09 06:11:10;;;;;;;15.80;5.05;;;7.50;100.00;;;;;;4949110;28;20898;-73
2023/11/09 06:13:37;;;;;;;5.30;2.72;;;7.50;100.00;;;;;;4958097;28;20066;-71
2023/11/09 06:16:05;;;;;;;11.20;3.00;;;7.50;100.00;;;;;;4945409;28;20066;-73
2023/11/09 06:18:33;;;;;;;5.28;2.80;;;7.50;100.00;;;;;;4942834;28;20061;-75
2023/11/09 06:21:02;;;;;;;4.72;3.03;;;7.50;100.00;;;;;;4931173;28;20054;-74
2023/11/09 06:23:29;;;;;;;9.45;3.42;;;7.50;100.00;;;;;;4938328;28;20051;-74
2023/11/09 06:25:57;;;;;;;6.75;3.08;;;7.50;100.00;;;;;;4963667;28;20047;-74
2023/11/09 06:28:25;;;;;;;10.07;3.30;;;7.50;100.00;;;;;;4952212;28;20047;-73
2023/11/09 06:30:52;;;;;;;6.53;3.00;;;7.50;100.00;;;;;;4956535;28;20071;-74
2023/11/09 06:33:19;;;;;;;4.93;3.03;;;7.50;100.00;;;;;;4959188;28;20443;-72
2023/11/09 06:35:48;;;;;;;6.60;3.17;;;7.50;100.00;;;;;;4962201;28;20051;-70
2023/11/09 06:38:22;;;;;;;7.53;2.85;;;7.50;100.00;;;;;;4960279;28;20047;-71
2023/11/09 06:40:49;;;;;;;5.40;3.00;;;7.50;100.00;;;;;;4951814;28;20070;-71
2023/11/09 06:43:16;;;;;;;7.80;2.97;;;7.50;100.00;;;;;;4939135;28;20079;-71
2023/11/09 06:45:43;;;;;;;8.60;3.60;;;7.50;100.00;;;;;;4958784;28;20162;-71
2023/11/09 06:48:10;;;;;;;8.65;3.88;;;7.50;100.00;;;;;;4938857;28;20078;-77
2023/11/09 06:50:37;;;;;;;7.85;3.53;;;7.50;100.00;;;;;;4945223;28;20064;-77
2023/11/09 06:53:05;;;;;;;9.52;3.42;;;7.50;100.00;;;;;;4951401;28;20047;-78
2023/11/09 06:55:32;;;;;;;8.90;3.78;;;7.50;100.00;;;;;;4962877;28;20055;-78
2023/11/09 06:58:00;;;;;;;9.07;3.70;;;7.50;100.00;;;;;;4954231;28;20050;-77
2023/11/09 07:00:27;;;;;;;6.68;3.72;;;7.50;100.00;;;;;;4960672;28;20055;-77
2023/11/09 07:02:57;;;;;;;10.70;4.07;;;7.50;100.00;;;;;;4958784;28;20081;-77
2023/11/09 07:05:24;;;;;;;6.00;3.30;;;7.50;100.00;;;;;;4955662;28;20074;-78
2023/11/09 07:08:16;;;;;;;10.00;4.07;;;7.50;100.00;;;;;;4942715;28;20051;-77
2023/11/09 07:10:43;;;;;;;9.77;3.72;;;7.50;100.00;;;;;;4961118;28;20054;-78
2023/11/09 07:13:10;;;;;;;6.97;3.78;;;7.50;100.00;;;;;;4955647;23;20054;-76
2023/11/09 07:15:39;;;;;;;6.50;3.58;;;7.50;100.00;;;;;;4939087;28;20053;-71
2023/11/09 07:21:03;;;;;;;7.32;3.22;;;7.60;100.00;;;;;;4943588;28;20066;-71
2023/11/09 07:23:38;;;;;;;6.45;3.65;;;7.60;100.00;;;;;;4927750;28;20060;-78
2023/11/09 07:26:05;;;;;;;6.90;3.72;;;7.60;100.00;;;;;;4932755;29;20078;-72
2023/11/09 07:28:32;;;;;;;9.50;3.78;;;7.60;100.00;;;;;;4942595;28;20484;-71
2023/11/09 07:31:00;;;;;;;12.95;3.65;;;7.60;100.00;;;;;;4909428;29;20044;-71
2023/11/09 07:33:28;;;;;;;10.40;4.13;;;7.60;100.00;;;;;;4943145;28;20078;-71
2023/11/09 07:35:57;;;;;;;12.85;4.22;;;7.60;100.00;;;;;;4941806;28;20527;-71
2023/11/09 07:38:26;;;;;;;15.90;5.30;;;7.60;100.00;;;;;;4918993;28;20135;-71
2023/11/09 07:40:53;;;;;;;9.65;3.78;;;7.60;100.00;;;;;;4926707;29;20485;-71
2023/11/09 07:43:21;;;;;;;7.13;3.70;;;7.60;100.00;;;;;;4939730;28;20483;-71
2023/11/09 07:45:48;;;;;;;9.93;3.90;;;7.70;100.00;;;;;;4931390;29;20512;-71
2023/11/09 07:48:16;;;;;;;7.95;3.58;;;7.70;100.00;;;;;;4950006;23;20083;-71
2023/11/09 07:53:33;;;;;;;12.93;3.67;;;7.70;100.00;;;;;;4943228;28;20064;-71
2023/11/09 07:56:00;;;;;;;7.13;3.58;;;7.70;100.00;;;;;;4949270;23;20113;-71
2023/11/09 07:58:29;;;;;;;9.43;3.60;;;7.70;100.00;;;;;;4959479;28;20134;-71
2023/11/09 08:00:57;;;;;;;12.15;3.63;;;7.70;100.00;;;;;;4965076;23;20051;-71
2023/11/09 08:03:24;;;;;;;8.13;3.30;;;7.70;100.00;;;;;;4939981;28;20780;-71
2023/11/09 08:05:51;;;;;;;9.95;3.08;;;7.70;100.00;;;;;;4962597;23;20142;-79
2023/11/09 08:08:19;;;;;;;5.05;3.08;;;7.70;100.00;;;;;;4944743;28;20114;-71
2023/11/09 08:10:47;;;;;;;16.17;3.60;;;7.80;100.00;;;;;;4956197;28;20074;-71
2023/11/09 08:13:14;;;;;;;8.48;3.42;;;7.80;100.00;;;;;;4965633;28;20057;-71
2023/11/09 08:15:41;;;;;;;7.90;3.40;;;7.80;100.00;;;;;;4958272;28;20051;-72
2023/11/09 08:18:08;;;;;;;5.97;3.40;;;7.80;100.00;;;;;;4961007;28;20051;-71
2023/11/09 08:20:35;;;;;;;8.82;3.13;;;7.80;100.00;;;;;;4942044;28;20142;-71
2023/11/09 08:23:02;;;;;;;4.85;3.03;;;7.80;100.00;;;;;;4955274;28;20705;-71
2023/11/09 08:25:28;;;;;;;9.45;3.50;;;7.90;100.00;;;;;;4960901;28;20185;-71
2023/11/09 08:27:55;;;;;;;10.18;4.00;;;7.90;100.00;;;;;;4957970;28;20055;-71
2023/11/09 08:30:27;;;;;;;6.25;2.95;;;7.90;100.00;;;;;;4955352;28;20047;-71
2023/11/09 08:32:55;;;;;;;7.18;2.75;;;7.90;100.00;;;;;;4958053;28;20046;-71
2023/11/09 08:35:26;;;;;;;6.70;2.75;;;8.00;100.00;;;;;;4956147;28;20047;-71
2023/11/09 08:37:53;;;;;;;14.55;3.08;;;8.00;100.00;;;;;;4957621;28;20050;-71
2023/11/09 08:40:27;;;;;;;4.60;2.67;;;8.00;100.00;;;;;;4964804;28;20069;-71
2023/11/09 08:42:57;;;;;;;10.68;3.05;;;8.00;100.00;;;;;;4951722;28;20412;-71
2023/11/09 08:45:27;;;;;;;8.40;2.67;;;8.00;100.00;;;;;;4967006;28;20492;-71
2023/11/09 08:47:55;;;;;;;5.38;2.38;;;8.00;100.00;;;;;;4950285;28;20046;-71
2023/11/09 08:50:24;;;;;;;3.75;2.78;;;8.00;100.00;;;;;;4949351;28;20487;-71
2023/11/09 08:53:12;;;;;;;7.95;3.03;;;8.00;100.00;;;;;;4936312;23;20062;-78
2023/11/09 08:55:40;;;;;;;4.93;2.22;;;8.00;100.00;;;;;;4939718;28;20484;-78
2023/11/09 08:58:06;;;;;;;6.93;2.42;;;8.00;100.00;;;;;;4951693;28;20074;-78
2023/11/09 09:00:34;;;;;;;6.05;2.60;;;8.00;100.00;;;;;;4947810;28;20059;-78
2023/11/09 09:03:01;;;;;;;4.95;2.92;;;8.00;100.00;;;;;;4958826;28;20703;-78
2023/11/09 09:05:28;;;;;;;4.50;2.03;;;8.10;100.00;;;;;;4948535;28;20063;-78
2023/11/09 09:07:59;;;;;;;9.00;2.72;;;8.10;100.00;;;;;;4945091;28;20051;-78
2023/11/09 09:10:29;;;;;;;6.93;2.90;;;8.10;100.00;;;;;;4950038;28;20159;-77
2023/11/09 09:12:56;;;;;;;6.60;2.72;;;8.20;100.00;;;;;;4949068;28;20050;-78
2023/11/09 09:15:27;;;;;;;4.20;2.45;;;8.30;100.00;;;;;;4948010;28;20078;-78
2023/11/09 09:17:55;;;;;;;7.50;2.80;;;8.40;100.00;;;;;;4940923;28;20040;-79
2023/11/09 09:20:23;;;;;;;10.90;2.42;;;8.40;100.00;;;;;;4940086;28;20055;-79
2023/11/09 09:22:54;;;;;;;6.25;2.65;;;8.40;100.00;;;;;;4951113;28;20139;-78
2023/11/09 09:25:22;;;;;;;7.47;2.50;;;8.40;100.00;;;;;;4941454;28;20134;-78
2023/11/09 09:27:51;;;;;;;8.25;2.75;;;8.40;100.00;;;;;;4947696;28;20151;-78
2023/11/09 09:30:21;;;;;;;4.45;2.20;;;8.40;100.00;;;;;;4937586;28;20497;-78
2023/11/09 09:32:53;;;;;;;8.65;2.70;;;8.40;100.00;;;;;;4943606;29;20051;-78
2023/11/09 09:35:23;;;;;;;4.55;2.53;;;8.40;100.00;;;;;;4949422;28;20047;-78
2023/11/09 09:37:53;;;;;;;13.88;2.85;;;8.40;100.00;;;;;;4941362;28;20602;-78
2023/11/09 09:40:23;;;;;;;6.60;2.45;;;8.40;100.00;;;;;;4943181;28;20461;-78
2023/11/09 09:43:02;;;;;;;6.35;2.50;;;8.40;100.00;;;;;;4936922;29;20676;-78
2023/11/09 09:45:33;;;;;;;4.05;2.58;;;8.40;100.00;;;;;;4950873;28;20083;-78
2023/11/09 09:48:01;;;;;;;4.47;2.90;;;8.40;100.00;;;;;;4933844;29;20055;-79
2023/11/09 09:50:37;;;;;;;11.95;3.20;;;8.40;100.00;;;;;;4940983;29;20151;-78
2023/11/09 09:53:09;;;;;;;3.92;2.45;;;8.40;100.00;;;;;;4947673;28;20153;-77
2023/11/09 09:55:37;;;;;;;5.32;2.63;;;8.50;100.00;;;;;;4951929;28;20135;-79
2023/11/09 09:58:05;;;;;;;3.72;2.17;;;8.50;100.00;;;;;;4941392;28;20054;-77
2023/11/09 10:00:32;;;;;;;8.30;2.90;;;8.60;100.00;;;;;;4942669;29;20496;-77
2023/11/09 10:03:06;;;;;;;6.85;2.97;;;8.60;100.00;;;;;;4950128;28;20464;-78
2023/11/09 10:05:35;;;;;;;9.95;2.58;;;8.70;100.00;;;;;;4950138;28;20059;-77
2023/11/09 10:08:20;;;;;;;11.13;3.08;;;8.90;100.00;;;;;;4950421;28;20062;-77
2023/11/09 10:10:50;;;;;;;5.63;2.88;;;9.00;100.00;;;;;;4936224;29;20044;-78
2023/11/09 10:13:20;;;;;;;4.45;2.80;;;9.10;100.00;;;;;;4938199;29;20596;-77
2023/11/09 10:15:56;;;;;;;5.60;2.95;;;9.00;100.00;;;;;;4935793;28;20078;-78
2023/11/09 10:18:27;;;;;;;11.82;2.65;;;9.00;100.00;;;;;;4939718;28;20086;-77
2023/11/09 10:21:01;;;;;;;12.85;3.13;;;8.90;100.00;;;;;;4944272;29;20097;-77
2023/11/09 10:23:28;;;;;;;6.05;2.22;;;9.00;100.00;;;;;;4950497;28;20130;-77
2023/11/09 10:25:56;;;;;;;4.03;2.55;;;8.90;100.00;;;;;;4936721;28;20051;-77
2023/11/09 10:28:28;;;;;;;5.20;2.70;;;9.00;100.00;;;;;;4946275;28;20062;-78
2023/11/09 10:30:56;;;;;;;5.53;2.20;;;9.00;100.00;;;;;;4949635;28;20047;-77
2023/11/09 10:33:24;;;;;;;5.50;2.53;;;9.00;100.00;;;;;;4940548;28;20063;-78
2023/11/09 10:38:36;;;;;;;7.72;2.20;;;9.10;100.00;;;;;;4925296;29;20051;-70
2023/11/09 10:41:05;;;;;;;8.20;2.92;;;9.10;100.00;;;;;;4911156;29;20416;-70
2023/11/09 10:43:53;;;;;;;8.50;2.60;;;9.10;100.00;;;;;;4906452;29;20704;-70
2023/11/09 10:46:22;;;;;;;10.15;2.55;;;9.10;100.00;;;;;;4927562;29;20063;-70
2023/11/09 10:48:51;;;;;;;12.13;2.70;;;9.10;100.00;;;;;;4925255;29;20131;-70
2023/11/09 10:51:20;;;;;;;5.35;2.45;;;9.20;100.00;;;;;;4927353;29;20056;-70
2023/11/09 10:53:48;;;;;;;6.97;2.33;;;9.20;100.00;;;;;;4910077;29;20051;-70
2023/11/09 10:56:16;;;;;;;6.63;2.38;;;9.20;100.00;;;;;;4912585;29;20134;-70
2023/11/09 10:58:44;;;;;;;5.05;2.45;;;9.20;100.00;;;;;;4926048;29;20043;-70
2023/11/09 11:01:20;;;;;;;6.55;2.28;;;9.20;100.00;;;;;;4910012;29;20060;-71
2023/11/09 11:03:52;;;;;;;6.70;2.42;;;9.20;100.00;;;;;;4925200;29;20134;-71
2023/11/09 11:06:24;;;;;;;6.95;2.58;;;9.20;100.00;;;;;;4925118;29;20108;-70
2023/11/09 11:08:56;;;;;;;6.28;2.67;;;9.20;100.00;;;;;;4905974;29;20063;-71
2023/11/09 11:11:33;;;;;;;7.47;3.08;;;9.20;100.00;;;;;;4908835;29;20056;-71
2023/11/09 11:14:09;;;;;;;7.78;2.63;;;9.20;100.00;;;;;;4904716;29;20460;-70
2023/11/09 11:16:51;;;;;;;;;;;9.20;100.00;;;;;;4908201;29;20059;-70
2023/11/09 11:19:49;;;;;;;6.20;2.35;;;9.20;100.00;;;;;;4918355;29;19931;-71
2023/11/09 11:22:41;;;;;;;8.60;2.60;;;9.20;100.00;;;;;;4921203;29;20058;-71
2023/11/09 11:25:38;;;;;;;5.85;2.90;;;9.20;100.00;;;;;;4924786;29;20052;-70
2023/11/09 11:28:09;;;;;;;4.85;2.53;;;9.10;100.00;;;;;;4905608;29;20047;-70
2023/11/09 11:30:39;;;;;;;5.18;2.60;;;9.10;100.00;;;;;;4908318;29;20055;-71
2023/11/09 11:33:13;;;;;;;4.18;2.60;;;9.10;100.00;;;;;;4925787;29;20477;-71
2023/11/09 11:35:48;;;;;;;6.40;2.33;;;9.10;100.00;;;;;;4926102;29;20071;-71
2023/11/09 11:38:24;;;;;;;5.57;3.00;;;9.10;100.00;;;;;;4920931;29;20074;-70
2023/11/09 11:41:29;;;;;;;;;;;9.10;100.00;;;;;;4923791;29;20052;-70
2023/11/09 11:43:58;;;;;;;12.63;2.83;;;9.10;100.00;;;;;;4859247;29;19927;-71
2023/11/09 11:46:27;;;;;;;8.00;2.38;;;9.00;100.00;;;;;;4866428;29;20125;-71
2023/11/09 11:48:54;;;;;;;10.00;2.30;;;9.10;100.00;;;;;;4888445;29;20056;-71
2023/11/09 11:51:23;;;;;;;3.88;2.05;;;9.10;100.00;;;;;;4923352;29;20063;-71
2023/11/09 11:53:56;;;;;;;5.45;2.17;;;9.00;100.00;;;;;;4934192;23;20586;-78
2023/11/09 11:56:31;;;;;;;7.25;2.40;;;9.00;100.00;;;;;;4933617;28;20468;-80
2023/11/09 11:59:06;;;;;;;6.15;2.28;;;9.10;100.00;;;;;;4924772;29;20066;-78
2023/11/09 12:01:33;;;;;;;15.70;2.60;;;9.10;100.00;;;;;;4945545;29;20066;-79
2023/11/09 12:04:06;;;;;;;7.85;2.70;;;9.10;100.00;;;;;;4930743;28;20062;-78
2023/11/09 12:06:37;;;;;;;5.90;2.67;;;9.20;100.00;;;;;;4934030;29;20461;-79
2023/11/09 12:09:08;;;;;;;7.68;2.95;;;9.30;100.00;;;;;;4947665;28;20055;-78
2023/11/09 12:11:46;;;;;;;16.10;3.42;;;9.30;100.00;;;;;;4938458;28;20069;-78
2023/11/09 12:14:19;;;;;;;7.30;3.17;;;9.30;100.00;;;;;;4920093;29;20047;-79
2023/11/09 12:16:47;;;;;;;6.93;2.65;;;9.30;100.00;;;;;;4941942;29;20063;-79
2023/11/09 12:19:15;;;;;;;6.75;2.70;;;9.30;100.00;;;;;;4928702;23;20047;-71
2023/11/09 12:21:46;;;;;;;9.27;3.28;;;9.30;100.00;;;;;;4940233;28;20062;-71
2023/11/09 12:24:21;;;;;;;6.03;2.90;;;9.30;100.00;;;;;;4936541;28;20062;-70
2023/11/09 12:27:06;;;;;;;8.25;2.85;;;9.30;100.00;;;;;;4955851;28;20062;-71
2023/11/09 12:29:40;;;;;;;6.03;2.72;;;9.30;100.00;;;;;;4939337;28;20043;-74
2023/11/09 12:38:16;;;;;;;7.28;4.03;;;9.20;100.00;;;;;;4870682;29;20085;-78
2023/11/09 12:40:47;;;;;;;4.43;2.60;;;9.30;100.00;;;;;;4876071;29;20061;-78
2023/11/09 12:43:14;;;;;;;8.88;2.28;;;9.30;100.00;;;;;;4875407;29;20109;-78
2023/11/09 12:45:42;;;;;;;9.80;2.28;;;9.30;100.00;;;;;;4876065;29;20131;-79
2023/11/09 12:48:11;;;;;;;2.65;1.88;;;9.30;100.00;;;;;;4875584;29;20080;-79
2023/11/09 12:50:39;;;;;;;8.68;2.22;;;9.20;100.00;;;;;;4875383;29;20060;-80
2023/11/09 12:53:08;;;;;;;3.67;2.35;;;9.20;100.00;;;;;;4872658;29;20470;-78
2023/11/09 12:55:37;;;;;;;6.45;2.70;;;9.20;100.00;;;;;;4873254;29;20053;-77
2023/11/09 12:58:04;;;;;;;5.82;2.20;;;9.20;100.00;;;;;;4873148;29;20119;-76
2023/11/09 13:03:02;;;;;;;4.70;1.98;;;9.10;100.00;;;;;;4908691;29;20063;-77
2023/11/09 13:05:32;;;;;;;4.22;2.33;;;9.00;100.00;;;;;;4916830;29;20052;-76
2023/11/09 13:08:08;;;;;;;3.65;2.30;;;9.00;100.00;;;;;;4889360;29;20087;-77
2023/11/09 13:10:36;;;;;;;7.00;2.72;;;9.00;100.00;;;;;;4910607;29;20076;-74
2023/11/09 13:16:18;;;;;;;9.35;2.78;;;8.90;100.00;;;;;;4945871;28;20043;-75
2023/11/09 13:18:50;;;;;;;5.72;2.42;;;8.90;100.00;;;;;;4947224;28;20051;-75
2023/11/09 13:21:20;;;;;;;9.77;3.17;;;8.90;100.00;;;;;;4948549;28;20154;-75
2023/11/09 13:23:47;;;;;;;7.43;2.50;;;8.90;100.00;;;;;;4947290;28;20082;-75
2023/11/09 13:26:26;;;;;;;5.63;3.40;;;8.80;100.00;;;;;;4947468;28;20051;-75
2023/11/09 13:28:58;;;;;;;6.55;2.67;;;8.90;100.00;;;;;;4930262;29;20059;-75
2023/11/09 13:31:28;;;;;;;10.00;2.65;;;8.90;100.00;;;;;;4945610;28;20134;-76
2023/11/09 13:33:57;;;;;;;5.82;2.60;;;8.80;100.00;;;;;;4930519;29;20142;-76
2023/11/09 13:36:44;;;;;;;8.15;2.90;;;8.80;100.00;;;;;;4947398;28;20504;-75
2023/11/09 13:41:45;;;;;;;5.72;2.72;;;8.80;100.00;;;;;;4945690;28;20058;-76
2023/11/09 13:44:12;;;;;;;7.30;2.92;;;8.80;100.00;;;;;;4943549;28;20094;-75
2023/11/09 13:46:41;;;;;;;6.05;2.67;;;8.80;100.00;;;;;;4934055;28;20141;-76
2023/11/09 13:52:38;;;;;;;4.40;2.47;;;8.80;100.00;;;;;;4944809;28;20551;-72
2023/11/09 13:54:46;;;;;;;5.80;2.50;;;8.80;100.00;;;;;;4932496;28;20126;-72
2023/11/09 13:57:19;;;;;;;;;;;;;;;;;;;;;